createdAt,value
2023-03-01T00:02:11.456Z,-1.10
2023-03-01T00:06:16.082Z,-1.20
2023-03-01T00:10:21.005Z,-1.20
2023-03-01T00:14:24.764Z,-1.20
2023-03-01T00:18:27.584Z,-1.20
2023-03-01T00:22:31.709Z,-1.30
2023-03-01T00:26:49.502Z,-1.30
2023-03-01T00:30:52.428Z,-1.30
2023-03-01T00:34:56.577Z,-1.30
2023-03-01T00:39:00.718Z,-1.30
2023-03-01T00:43:03.813Z,-1.40
2023-03-01T00:47:07.686Z,-1.40
2023-03-01T00:51:11.348Z,-1.40
2023-03-01T00:55:15.498Z,-1.50
2023-03-01T00:59:18.310Z,-1.50
2023-03-01T01:03:21.295Z,-1.60
2023-03-01T01:07:26.441Z,-1.60
2023-03-01T01:11:31.331Z,-1.70
2023-03-01T01:15:35.484Z,-1.80
2023-03-01T01:19:38.319Z,-1.80
2023-03-01T01:23:46.118Z,-1.90
2023-03-01T01:27:50.243Z,-1.90
2023-03-01T01:31:53.093Z,-2.00
2023-03-01T01:35:55.992Z,-2.00
2023-03-01T01:39:58.969Z,-2.00
2023-03-01T01:44:16.690Z,-2.00
2023-03-01T01:48:23.045Z,-2.00
2023-03-01T01:52:27.929Z,-2.00
2023-03-01T01:56:31.490Z,-2.00
2023-03-01T02:00:34.470Z,-2.10
2023-03-01T02:04:38.694Z,-2.10
2023-03-01T02:08:43.268Z,-2.20
2023-03-01T02:12:46.316Z,-2.20
2023-03-01T02:16:57.073Z,-2.20
2023-03-01T02:21:07.479Z,-2.30
2023-03-01T02:25:14.600Z,-2.30
2023-03-01T02:29:18.794Z,-2.40
2023-03-01T02:33:21.674Z,-2.40
2023-03-01T02:37:26.671Z,-2.40
2023-03-01T02:41:30.602Z,-2.40
2023-03-01T02:45:34.725Z,-2.50
2023-03-01T02:49:38.241Z,-2.50
2023-03-01T02:53:43.973Z,-2.50
2023-03-01T02:57:47.726Z,-2.50
2023-03-01T03:01:51.953Z,-2.50
2023-03-01T03:05:55.051Z,-2.60
2023-03-01T03:09:57.846Z,-2.60
2023-03-01T03:14:00.673Z,-2.60
2023-03-01T03:18:05.481Z,-2.60
2023-03-01T03:22:09.965Z,-2.70
2023-03-01T03:26:16.197Z,-2.70
2023-03-01T03:30:20.075Z,-2.70
2023-03-01T03:34:24.252Z,-2.70
2023-03-01T03:38:29.123Z,-2.80
2023-03-01T03:42:31.926Z,-2.80
2023-03-01T03:46:35.047Z,-2.80
2023-03-01T03:50:39.728Z,-2.90
2023-03-01T03:54:42.545Z,-2.90
2023-03-01T03:58:45.382Z,-3.00
2023-03-01T04:02:49.233Z,-3.00
2023-03-01T04:06:53.350Z,-3.00
2023-03-01T04:10:58.996Z,-3.00
2023-03-01T04:15:01.898Z,-3.00
2023-03-01T04:19:10.530Z,-3.00
2023-03-01T04:23:17.006Z,-3.10
2023-03-01T04:27:19.917Z,-3.00
2023-03-01T04:31:23.395Z,-3.10
2023-03-01T04:35:26.314Z,-3.10
2023-03-01T04:39:46.590Z,-3.10
2023-03-01T04:43:50.313Z,-3.10
2023-03-01T04:47:53.570Z,-3.10
2023-03-01T04:51:56.809Z,-3.10
2023-03-01T04:56:07.827Z,-3.10
2023-03-01T05:00:21.855Z,-3.10
2023-03-01T05:04:24.778Z,-3.10
2023-03-01T05:08:27.941Z,-3.10
2023-03-01T05:12:32.054Z,-3.20
2023-03-01T05:16:40.971Z,-3.20
2023-03-01T05:20:43.736Z,-3.20
2023-03-01T05:24:47.842Z,-3.20
2023-03-01T05:28:51.998Z,-3.20
2023-03-01T05:32:56.927Z,-3.30
2023-03-01T05:37:19.134Z,-3.30
2023-03-01T05:41:21.965Z,-3.30
2023-03-01T05:45:27.254Z,-3.40
2023-03-01T05:49:31.169Z,-3.40
2023-03-01T05:53:33.964Z,-3.40
2023-03-01T05:57:36.801Z,-3.50
2023-03-01T06:01:40.971Z,-3.50
2023-03-01T06:05:43.819Z,-3.60
2023-03-01T06:09:46.664Z,-3.60
2023-03-01T06:13:49.686Z,-3.60
2023-03-01T06:17:57.122Z,-3.60
2023-03-01T06:22:01.003Z,-3.60
2023-03-01T06:26:07.020Z,-3.60
2023-03-01T06:30:10.948Z,-3.70
2023-03-01T06:34:15.244Z,-3.60
2023-03-01T06:38:19.866Z,-3.60
2023-03-01T06:42:22.752Z,-3.50
2023-03-01T06:46:26.061Z,-3.40
2023-03-01T06:50:30.286Z,-3.30
2023-03-01T06:54:33.110Z,-3.20
2023-03-01T06:58:35.886Z,-3.00
2023-03-01T07:02:38.688Z,-2.90
2023-03-01T07:06:42.854Z,-2.60
2023-03-01T07:10:45.671Z,-2.40
2023-03-01T07:14:48.605Z,-2.10
2023-03-01T07:18:51.499Z,-1.70
2023-03-01T07:22:57.596Z,-1.20
2023-03-01T07:27:00.728Z,0.30
2023-03-01T07:31:04.164Z,1.10
2023-03-01T07:35:07.420Z,1.60
2023-03-01T07:39:11.754Z,1.90
2023-03-01T07:43:21.706Z,2.60
2023-03-01T07:47:24.493Z,3.00
2023-03-01T07:51:27.449Z,3.00
2023-03-01T07:55:31.560Z,2.70
2023-03-01T07:59:34.842Z,2.50
2023-03-01T08:03:37.926Z,2.50
2023-03-01T08:07:40.809Z,3.00
2023-03-01T08:11:45.027Z,3.70
2023-03-01T08:15:47.876Z,4.40
2023-03-01T08:19:50.692Z,5.20
2023-03-01T08:23:54.914Z,5.90
2023-03-01T08:27:59.095Z,6.40
2023-03-01T08:32:02.099Z,7.00
2023-03-01T08:36:07.761Z,7.60
2023-03-01T08:40:11.946Z,8.20
2023-03-01T08:44:17.764Z,8.90
2023-03-01T08:48:20.900Z,9.50
2023-03-01T08:52:25.482Z,10.10
2023-03-01T08:56:28.611Z,10.60
2023-03-01T09:00:35.629Z,11.00
2023-03-01T09:04:38.475Z,11.50
2023-03-01T09:08:42.250Z,12.00
2023-03-01T09:12:45.144Z,12.50
2023-03-01T09:16:49.461Z,12.90
2023-03-01T09:20:52.449Z,13.40
2023-03-01T09:24:55.255Z,13.60
2023-03-01T09:28:58.191Z,14.10
2023-03-01T09:33:02.419Z,14.40
2023-03-01T09:37:05.208Z,14.90
2023-03-01T09:41:12.541Z,15.40
2023-03-01T09:53:27.182Z,16.30
2023-03-01T09:57:37.561Z,16.50
2023-03-01T10:01:44.290Z,16.70
2023-03-01T10:05:51.534Z,17.10
2023-03-01T10:18:08.361Z,18.10
2023-03-01T10:22:15.579Z,18.30
2023-03-01T10:26:25.834Z,18.40
2023-03-01T10:30:34.468Z,18.60
2023-03-01T10:34:39.191Z,19.00
2023-03-01T10:38:53.344Z,19.30
2023-03-01T10:42:59.218Z,19.40
2023-03-01T10:47:03.168Z,19.60
2023-03-01T10:51:08.769Z,19.70
2023-03-01T10:55:25.530Z,19.60
2023-03-01T10:59:29.785Z,19.70
2023-03-01T11:03:33.321Z,19.90
2023-03-01T11:07:48.517Z,19.90
2023-03-01T11:11:54.106Z,20.00
2023-03-01T11:16:00.989Z,20.20
2023-03-01T11:20:07.403Z,20.20
2023-03-01T11:24:13.919Z,20.30
2023-03-01T11:28:18.010Z,20.40
2023-03-01T11:32:22.214Z,20.60
2023-03-01T11:36:28.313Z,20.70
2023-03-01T11:40:35.906Z,20.70
2023-03-01T11:48:49.844Z,20.90
2023-03-01T11:53:01.785Z,21.10
2023-03-01T11:57:09.309Z,21.20
2023-03-01T12:01:18.750Z,21.30
2023-03-01T12:05:39.321Z,21.40
2023-03-01T12:09:51.076Z,21.40
2023-03-01T12:14:01.771Z,21.50
2023-03-01T12:18:20.123Z,21.60
2023-03-01T12:22:28.180Z,21.60
2023-03-01T12:26:33.185Z,21.70
2023-03-01T12:30:41.562Z,21.70
2023-03-01T12:34:51.880Z,21.80
2023-03-01T12:43:03.538Z,21.80
2023-03-01T12:47:13.407Z,21.80
2023-03-01T12:51:17.821Z,21.80
2023-03-01T12:55:26.370Z,21.80
2023-03-01T12:59:32.289Z,21.80
2023-03-01T13:03:41.199Z,21.80
2023-03-01T13:07:47.061Z,21.40
2023-03-01T13:11:49.846Z,20.50
2023-03-01T13:15:53.173Z,19.50
2023-03-01T13:20:01.517Z,18.50
2023-03-01T13:24:04.570Z,17.60
2023-03-01T13:28:27.317Z,16.80
2023-03-01T13:32:48.437Z,15.90
2023-03-01T13:36:52.973Z,15.20
2023-03-01T13:41:01.870Z,14.50
2023-03-01T13:45:07.797Z,13.90
2023-03-01T13:49:16.316Z,13.40
2023-03-01T13:53:24.461Z,13.00
2023-03-01T13:57:34.908Z,12.60
2023-03-01T14:01:38.817Z,12.30
2023-03-01T14:05:43.401Z,12.10
2023-03-01T14:09:52.902Z,11.80
2023-03-01T14:14:32.096Z,11.60
2023-03-01T14:18:40.921Z,11.30
2023-03-01T14:22:44.979Z,11.20
2023-03-01T14:26:51.791Z,11.00
2023-03-01T14:30:56.073Z,10.80
2023-03-01T14:35:00.275Z,10.70
2023-03-01T14:39:06.760Z,10.60
2023-03-01T14:43:19.667Z,10.50
2023-03-01T14:47:29.106Z,10.40
2023-03-01T14:51:32.614Z,10.30
2023-03-01T14:55:38.760Z,10.30
2023-03-01T14:59:44.182Z,10.50
2023-03-01T15:03:50.275Z,10.90
2023-03-01T15:07:54.303Z,11.40
2023-03-01T15:11:57.251Z,11.90
2023-03-01T15:16:11.691Z,12.50
2023-03-01T15:20:22.524Z,13.10
2023-03-01T15:24:28.663Z,13.50
2023-03-01T15:28:34.242Z,13.90
2023-03-01T15:32:43.516Z,14.30
2023-03-01T15:36:51.118Z,14.60
2023-03-01T15:40:54.989Z,14.90
2023-03-01T15:45:09.698Z,14.90
2023-03-01T15:49:29.753Z,15.00
2023-03-01T15:53:32.730Z,15.20
2023-03-01T15:57:36.127Z,15.30
2023-03-01T16:01:39.136Z,15.30
2023-03-01T16:05:43.460Z,15.40
2023-03-01T16:09:46.959Z,15.30
2023-03-01T16:13:51.233Z,15.30
2023-03-01T16:17:54.269Z,15.20
2023-03-01T16:21:58.789Z,15.00
2023-03-01T16:26:01.837Z,14.70
2023-03-01T16:30:06.721Z,14.30
2023-03-01T16:34:09.774Z,13.90
2023-03-01T16:38:14.172Z,13.50
2023-03-01T16:42:17.435Z,13.00
2023-03-01T16:46:22.388Z,12.60
2023-03-01T16:50:25.438Z,12.30
2023-03-01T16:54:29.734Z,11.90
2023-03-01T16:58:32.698Z,11.50
2023-03-01T17:02:36.722Z,11.10
2023-03-01T17:06:39.753Z,10.70
2023-03-01T17:10:44.365Z,10.40
2023-03-01T17:14:48.690Z,10.00
2023-03-01T17:18:52.486Z,9.70
2023-03-01T17:22:55.463Z,9.40
2023-03-01T17:26:59.833Z,9.10
2023-03-01T17:31:04.765Z,8.80
2023-03-01T17:35:12.005Z,8.60
2023-03-01T17:39:15.132Z,8.30
2023-03-01T17:43:20.109Z,8.00
2023-03-01T17:47:23.102Z,7.80
2023-03-01T17:51:26.170Z,7.60
2023-03-01T17:55:29.187Z,7.40
2023-03-01T17:59:37.377Z,7.20
2023-03-01T18:03:40.733Z,7.00
2023-03-01T18:07:45.724Z,6.80
2023-03-01T18:11:48.710Z,6.60
2023-03-01T18:15:53.030Z,6.40
2023-03-01T18:19:56.728Z,6.30
2023-03-01T18:24:00.654Z,6.10
2023-03-01T18:28:04.733Z,6.00
2023-03-01T18:32:09.441Z,5.80
2023-03-01T18:36:24.623Z,5.60
2023-03-01T18:40:27.744Z,5.50
2023-03-01T18:44:30.780Z,5.30
2023-03-01T18:48:36.899Z,5.10
2023-03-01T18:52:39.872Z,5.00
2023-03-01T18:56:44.522Z,4.80
2023-03-01T19:00:47.478Z,4.70
2023-03-01T19:04:52.145Z,4.50
2023-03-01T19:08:55.031Z,4.30
2023-03-01T19:12:57.945Z,4.20
2023-03-01T19:17:01.093Z,4.00
2023-03-01T19:21:06.724Z,3.90
2023-03-01T19:25:10.767Z,3.80
2023-03-01T19:29:13.766Z,3.70
2023-03-01T19:33:17.808Z,3.60
2023-03-01T19:37:23.833Z,3.50
2023-03-01T19:41:27.097Z,3.50
2023-03-01T19:45:33.705Z,3.40
2023-03-01T19:49:37.789Z,3.40
2023-03-01T19:53:42.314Z,3.30
2023-03-01T19:57:45.286Z,3.30
2023-03-01T20:01:48.316Z,3.20
2023-03-01T20:05:51.278Z,3.30
2023-03-01T20:09:56.679Z,3.30
2023-03-01T20:14:00.109Z,3.20
2023-03-01T20:18:03.076Z,3.20
2023-03-01T20:22:06.064Z,3.10
2023-03-01T20:26:15.176Z,3.10
2023-03-01T20:30:18.584Z,3.00
2023-03-01T20:34:21.581Z,3.00
2023-03-01T20:38:25.546Z,2.90
2023-03-01T20:42:29.886Z,2.80
2023-03-01T20:46:33.734Z,2.70
2023-03-01T20:50:40.971Z,2.70
2023-03-01T20:54:44.007Z,2.60
2023-03-01T20:58:48.541Z,2.50
2023-03-01T21:02:51.545Z,2.50
2023-03-01T21:06:54.563Z,2.40
2023-03-01T21:10:58.793Z,2.40
2023-03-01T21:15:03.280Z,2.30
2023-03-01T21:19:06.202Z,2.30
2023-03-01T21:23:09.164Z,2.20
2023-03-01T21:27:13.266Z,2.20
2023-03-01T21:31:19.504Z,2.10
2023-03-01T21:35:22.525Z,2.10
2023-03-01T21:39:29.041Z,2.00
2023-03-01T21:43:32.069Z,2.00
2023-03-01T21:47:36.450Z,2.00
2023-03-01T21:51:40.511Z,2.00
2023-03-01T21:55:48.229Z,1.90
2023-03-01T21:59:53.239Z,1.90
2023-03-01T22:03:58.998Z,1.90
2023-03-01T22:08:04.337Z,1.80
2023-03-01T22:12:07.794Z,1.80
2023-03-01T22:16:10.900Z,1.70
2023-03-01T22:20:16.158Z,1.70
2023-03-01T22:24:22.183Z,1.60
2023-03-01T22:28:25.231Z,1.50
2023-03-01T22:32:28.493Z,1.40
2023-03-01T22:36:33.723Z,1.40
2023-03-01T22:40:39.030Z,1.30
2023-03-01T22:44:42.128Z,1.30
2023-03-01T22:48:45.949Z,1.20
2023-03-01T22:52:50.613Z,1.20
2023-03-01T22:56:53.716Z,1.20
2023-03-01T23:00:56.725Z,1.10
2023-03-01T23:04:59.681Z,1.10
2023-03-01T23:09:06.846Z,1.10
2023-03-01T23:13:09.879Z,1.10
2023-03-01T23:17:13.969Z,1.10
2023-03-01T23:21:18.847Z,1.10
2023-03-01T23:25:23.268Z,1.00
2023-03-01T23:29:26.366Z,0.90
2023-03-01T23:33:33.310Z,0.90
2023-03-01T23:37:36.290Z,0.80
2023-03-01T23:41:41.028Z,0.70
2023-03-01T23:45:44.087Z,0.70
2023-03-01T23:49:47.108Z,0.60
2023-03-01T23:53:55.245Z,0.60
2023-03-01T23:57:59.564Z,0.60
